Time;durP1;ratioP1;P1;durP2;ratioP2;P2;SDS_P1;SDS_P2;PMS_P1;PMS_P2;Temp;Humidity;BMP_temperature;BMP_pressure;BME280_temperature;BME280_humidity;BME280_pressure;Samples;Min_cycle;Max_cycle;Signal;HPM_P1;HPM_P2
2022/03/09 00:01:34;;;;;;;39.35;18.08;;;;;;;-4.72;100.00;95276.50;5011686;28;20109;-62
2022/03/09 00:04:00;;;;;;;36.92;18.48;;;;;;;-4.72;100.00;95276.50;5011963;28;20025;-61
2022/03/09 00:06:26;;;;;;;43.40;20.05;;;;;;;-4.74;100.00;95281.91;5011280;28;20508;-61
2022/03/09 00:08:51;;;;;;;38.33;17.65;;;;;;;-4.77;100.00;95281.44;4981114;28;20034;-61
2022/03/09 00:11:19;;;;;;;37.03;18.92;;;;;;;-4.79;100.00;95276.34;5011661;28;20046;-61
2022/03/09 00:13:51;;;;;;;37.20;17.40;;;;;;;-4.79;100.00;95278.94;5011708;28;20570;-61
2022/03/09 00:16:16;;;;;;;33.35;17.40;;;;;;;-4.79;100.00;95280.75;5010567;28;20030;-61
2022/03/09 00:18:44;;;;;;;38.60;17.40;;;;;;;-4.80;100.00;95290.38;5011830;28;20028;-61
2022/03/09 00:21:10;;;;;;;35.42;17.58;;;;;;;-4.82;100.00;95289.75;4993990;28;20030;-61
2022/03/09 00:23:41;;;;;;;34.05;16.95;;;;;;;-4.83;100.00;95293.34;5011640;28;20115;-61
2022/03/09 00:26:06;;;;;;;36.78;16.58;;;;;;;-4.84;100.00;95302.16;4994270;28;20061;-61
2022/03/09 00:28:32;;;;;;;35.75;17.60;;;;;;;-4.87;100.00;95299.88;5011743;28;20033;-61
2022/03/09 00:31:00;;;;;;;36.83;17.58;;;;;;;-4.93;100.00;95300.53;5011507;28;20014;-61
2022/03/09 00:33:32;;;;;;;32.35;16.58;;;;;;;-4.98;100.00;95308.88;4994555;28;20358;-61
2022/03/09 00:36:00;;;;;;;34.05;16.23;;;;;;;-5.02;100.00;95301.50;5011276;28;20112;-61
2022/03/09 00:38:25;;;;;;;35.78;17.20;;;;;;;-5.04;100.00;95306.91;5011722;28;20366;-61
2022/03/09 00:40:51;;;;;;;31.67;16.67;;;;;;;-5.05;100.00;95302.66;5011410;28;20076;-61
2022/03/09 00:43:22;;;;;;;34.22;16.75;;;;;;;-5.07;100.00;95307.22;5011668;28;20081;-60
2022/03/09 00:45:48;;;;;;;30.88;15.82;;;;;;;-5.10;100.00;95301.50;5011099;28;20042;-60
2022/03/09 00:48:20;;;;;;;35.63;16.75;;;;;;;-5.09;100.00;95300.53;5011644;28;20025;-61
2022/03/09 00:50:45;;;;;;;30.38;14.88;;;;;;;-5.15;100.00;95302.00;5010159;28;20022;-61
2022/03/09 00:53:11;;;;;;;32.50;16.10;;;;;;;-5.19;100.00;95298.09;5011586;28;20080;-61
2022/03/09 00:55:51;;;;;;;34.25;16.35;;;;;;;-5.18;100.00;95304.13;4993436;28;20033;-61
2022/03/09 00:58:24;;;;;;;31.77;15.20;;;;;;;-5.16;100.00;95310.00;5003270;28;20485;-61
2022/03/09 01:00:52;;;;;;;29.75;14.57;;;;;;;-5.21;100.00;95307.03;4998792;28;20022;-61
2022/03/09 01:03:21;;;;;;;31.08;15.02;;;;;;;-5.31;100.00;95310.66;4993761;28;20033;-61
2022/03/09 01:05:46;;;;;;;29.77;14.77;;;;;;;-5.39;100.00;95317.66;5010900;28;20117;-61
2022/03/09 01:08:12;;;;;;;35.72;15.98;;;;;;;-5.39;100.00;95312.44;4993737;28;20109;-61
2022/03/09 01:10:37;;;;;;;31.67;15.55;;;;;;;-5.35;100.00;95311.94;5009621;28;20022;-61
2022/03/09 01:13:03;;;;;;;30.02;14.82;;;;;;;-5.38;100.00;95301.81;5011630;28;20017;-61
2022/03/09 01:15:28;;;;;;;31.38;14.13;;;;;;;-5.38;100.00;95303.63;5011124;28;20053;-59
2022/03/09 01:17:54;;;;;;;30.15;14.00;;;;;;;-5.36;100.00;95299.03;4993637;28;20033;-61
2022/03/09 01:20:25;;;;;;;30.65;15.27;;;;;;;-5.35;100.00;95301.50;5011248;28;20060;-61
2022/03/09 01:22:52;;;;;;;30.65;14.68;;;;;;;-5.37;100.00;95302.63;5011218;28;20507;-59
2022/03/09 01:25:18;;;;;;;31.42;14.38;;;;;;;-5.23;100.00;95301.19;5011120;28;20037;-60
2022/03/09 01:27:47;;;;;;;28.52;13.90;;;;;;;-5.08;100.00;95303.00;4994360;28;20018;-60
2022/03/09 01:30:16;;;;;;;27.55;13.23;;;;;;;-5.06;100.00;95308.03;5013416;28;20036;-60
2022/03/09 01:33:05;;;;;;;27.25;13.32;;;;;;;-5.08;100.00;95308.22;5014427;28;20026;-60
2022/03/09 01:35:31;;;;;;;29.30;14.23;;;;;;;-5.13;100.00;95307.88;5014125;28;20480;-60
2022/03/09 01:37:56;;;;;;;28.10;12.98;;;;;;;-5.20;100.00;95306.09;5014611;28;20076;-60
2022/03/09 01:40:21;;;;;;;30.50;13.57;;;;;;;-5.29;100.00;95305.25;5014541;28;20030;-58
2022/03/09 01:42:59;;;;;;;27.27;13.27;;;;;;;-5.37;100.00;95307.88;5014643;28;20030;-60
2022/03/09 01:45:25;;;;;;;24.48;12.20;;;;;;;-5.39;100.00;95310.63;5014179;28;20034;-58
2022/03/09 01:47:53;;;;;;;25.52;13.45;;;;;;;-5.40;100.00;95310.81;5014531;28;20030;-59
2022/03/09 01:50:18;;;;;;;29.23;12.75;;;;;;;-5.43;100.00;95305.88;5014261;28;20497;-60
2022/03/09 01:52:56;;;;;;;27.77;12.98;;;;;;;-5.44;100.00;95305.06;5014302;28;20037;-59
2022/03/09 01:55:24;;;;;;;26.85;12.40;;;;;;;-5.45;100.00;95308.66;5014134;28;20064;-59
2022/03/09 01:57:49;;;;;;;25.45;12.63;;;;;;;-5.50;100.00;95308.34;5014194;28;20076;-59
2022/03/09 02:00:15;;;;;;;22.38;11.52;;;;;;;-5.57;100.00;95309.94;5013922;28;20025;-59
2022/03/09 02:02:47;;;;;;;25.08;12.55;;;;;;;-5.62;100.00;95307.00;5013959;28;20500;-60
2022/03/09 02:05:15;;;;;;;27.65;13.23;;;;;;;-5.65;100.00;95294.25;4996332;28;20030;-60
2022/03/09 02:10:30;;;;;;;25.88;12.07;;;;;;;-5.68;100.00;95292.81;5014203;28;20033;-60
2022/03/09 02:12:56;;;;;;;23.47;12.03;;;;;;;-5.68;100.00;95295.41;4996557;28;20038;-60
2022/03/09 02:15:22;;;;;;;24.08;11.93;;;;;;;-5.70;100.00;95292.16;5011764;28;20025;-59
2022/03/09 02:17:47;;;;;;;22.67;12.02;;;;;;;-5.72;100.00;95293.28;4996318;28;20033;-60
2022/03/09 02:20:16;;;;;;;25.00;12.23;;;;;;;-5.75;100.00;95293.59;5013506;28;20172;-60
2022/03/09 02:22:43;;;;;;;25.67;12.45;;;;;;;-5.77;100.00;95290.31;5013547;28;20033;-60
2022/03/09 02:25:15;;;;;;;24.85;12.52;;;;;;;-5.79;100.00;95302.72;5013705;28;20532;-60
2022/03/09 02:27:41;;;;;;;25.02;12.50;;;;;;;-5.81;100.00;95302.88;5013207;28;20069;-60
2022/03/09 02:30:09;;;;;;;23.17;12.13;;;;;;;-5.87;100.00;95304.31;5013513;28;20060;-60
2022/03/09 02:32:46;;;;;;;29.38;12.52;;;;;;;-5.91;100.00;95316.09;5013443;28;20026;-60
2022/03/09 02:35:16;;;;;;;27.95;12.65;;;;;;;-5.95;100.00;95308.75;5013762;28;20389;-60
2022/03/09 02:37:45;;;;;;;28.13;12.25;;;;;;;-5.97;100.00;95313.28;5013033;28;20431;-60
2022/03/09 02:40:22;;;;;;;26.38;12.07;;;;;;;-5.91;100.00;95318.69;5012466;28;20093;-59
2022/03/09 02:42:47;;;;;;;22.63;11.82;;;;;;;-5.86;100.00;95324.25;4995842;28;20033;-60
2022/03/09 02:45:19;;;;;;;28.38;13.27;;;;;;;-5.88;100.00;95323.56;5012955;28;20022;-60
2022/03/09 02:47:45;;;;;;;29.00;12.70;;;;;;;-5.93;100.00;95323.25;5011744;28;20508;-60
2022/03/09 02:50:15;;;;;;;23.80;12.38;;;;;;;-5.96;100.00;95322.75;5013271;28;20022;-60
2022/03/09 02:52:42;;;;;;;25.63;11.75;;;;;;;-6.00;100.00;95324.84;4995417;28;20018;-60
2022/03/09 02:55:08;;;;;;;31.20;13.02;;;;;;;-6.03;100.00;95322.56;5013189;28;20387;-60
2022/03/09 02:57:34;;;;;;;26.98;12.15;;;;;;;-6.06;100.00;95315.06;5012664;28;20041;-59
2022/03/09 03:00:09;;;;;;;27.90;12.57;;;;;;;-6.07;100.00;95312.63;5013044;28;20030;-58
2022/03/09 03:02:53;;;;;;;26.40;13.18;;;;;;;-6.12;100.00;95315.69;5000414;28;20034;-58
2022/03/09 03:05:18;;;;;;;32.22;13.40;;;;;;;-6.20;100.00;95310.41;5012202;28;20053;-59
2022/03/09 03:07:50;;;;;;;26.23;12.15;;;;;;;-6.23;100.00;95313.34;5013038;28;20072;-57
2022/03/09 03:10:23;;;;;;;26.95;12.63;;;;;;;-6.24;100.00;95311.72;5011734;28;20097;-59
2022/03/09 03:12:54;;;;;;;29.83;13.77;;;;;;;-6.23;100.00;95314.16;5012538;28;20144;-59
2022/03/09 03:15:19;;;;;;;35.42;13.15;;;;;;;-6.22;100.00;95318.41;5012393;28;20025;-59
2022/03/09 03:17:51;;;;;;;30.42;13.98;;;;;;;-6.22;100.00;95328.84;5012553;28;20037;-59
2022/03/09 03:20:19;;;;;;;26.35;13.15;;;;;;;-6.25;100.00;95329.16;5012615;28;20033;-59
2022/03/09 03:22:45;;;;;;;30.45;13.23;;;;;;;-6.27;100.00;95319.84;4995173;28;20036;-59
2022/03/09 03:25:10;;;;;;;30.70;13.05;;;;;;;-6.30;100.00;95325.34;5012540;28;20029;-60
2022/03/09 03:27:35;;;;;;;28.35;12.68;;;;;;;-6.35;100.00;95330.25;5012217;28;20057;-60
2022/03/09 03:30:01;;;;;;;25.70;12.80;;;;;;;-6.37;100.00;95334.78;5012497;28;20022;-59
2022/03/09 03:32:26;;;;;;;28.60;13.50;;;;;;;-6.40;100.00;95332.47;4994810;28;20041;-60
2022/03/09 03:34:55;;;;;;;33.30;15.00;;;;;;;-6.35;100.00;95340.66;5011191;28;20025;-60
2022/03/09 03:37:36;;;;;;;32.10;13.73;;;;;;;-6.30;100.00;95334.00;5011857;28;20036;-60
2022/03/09 03:40:02;;;;;;;30.42;13.43;;;;;;;-6.27;100.00;95335.50;5012499;28;20487;-60
2022/03/09 03:42:30;;;;;;;29.67;14.23;;;;;;;-6.27;100.00;95336.31;5012492;28;20109;-60
2022/03/09 03:44:56;;;;;;;28.92;14.23;;;;;;;-6.24;100.00;95343.00;5012447;28;20033;-60
2022/03/09 03:47:21;;;;;;;30.88;14.55;;;;;;;-6.29;100.00;95338.25;4994488;28;20408;-60
2022/03/09 03:49:47;;;;;;;31.13;14.15;;;;;;;-6.36;100.00;95336.41;4994652;28;20057;-58
2022/03/09 03:52:30;;;;;;;29.80;14.77;;;;;;;-6.44;100.00;95340.59;5011748;28;20116;-59
2022/03/09 03:54:55;;;;;;;30.42;15.55;;;;;;;-6.49;100.00;95342.88;4994768;28;20403;-60
2022/03/09 03:57:23;;;;;;;33.10;14.63;;;;;;;-6.53;100.00;95340.72;5011419;28;20030;-59
2022/03/09 03:59:51;;;;;;;29.58;14.20;;;;;;;-6.58;100.00;95341.19;5012255;28;20029;-60
2022/03/09 04:02:17;;;;;;;29.27;14.10;;;;;;;-6.64;100.00;95347.00;5011744;28;20018;-60
2022/03/09 04:04:42;;;;;;;32.75;14.30;;;;;;;-6.66;100.00;95353.34;5011823;28;20033;-59
2022/03/09 04:07:10;;;;;;;31.42;14.95;;;;;;;-6.70;100.00;95346.81;5011424;28;20149;-59
2022/03/09 04:09:36;;;;;;;30.85;14.80;;;;;;;-6.70;100.00;95347.63;5011790;28;20481;-60
2022/03/09 04:12:01;;;;;;;31.52;15.07;;;;;;;-6.66;100.00;95348.13;5011345;28;20060;-60
2022/03/09 04:14:27;;;;;;;32.70;14.82;;;;;;;-6.67;100.00;95347.31;4978339;28;20057;-60
2022/03/09 04:16:55;;;;;;;31.92;15.32;;;;;;;-6.68;100.00;95345.69;4993748;28;20503;-60
2022/03/09 04:19:20;;;;;;;34.38;15.30;;;;;;;-6.68;100.00;95357.88;5011749;28;20034;-59
2022/03/09 04:21:46;;;;;;;30.92;14.40;;;;;;;-6.67;100.00;95352.50;5011783;28;20068;-60
2022/03/09 04:24:14;;;;;;;28.75;14.18;;;;;;;-6.70;100.00;95358.03;5011830;28;20088;-60
2022/03/09 04:26:52;;;;;;;30.63;13.50;;;;;;;-6.68;100.00;95360.50;5011135;28;20032;-60
2022/03/09 04:29:20;;;;;;;32.05;14.77;;;;;;;-6.65;100.00;95362.78;5011712;28;20029;-60
2022/03/09 04:31:46;;;;;;;30.90;14.32;;;;;;;-6.66;100.00;95367.16;5011659;28;20028;-60
2022/03/09 04:34:11;;;;;;;34.70;16.58;;;;;;;-6.64;100.00;95369.63;4994600;28;20105;-58
2022/03/09 04:36:40;;;;;;;35.28;15.52;;;;;;;-6.66;100.00;95375.00;4998218;28;20034;-60
2022/03/09 04:39:05;;;;;;;35.58;16.10;;;;;;;-6.66;100.00;95374.16;5011440;28;20022;-60
2022/03/09 04:41:33;;;;;;;36.00;14.93;;;;;;;-6.67;100.00;95375.97;4994014;28;20033;-59
2022/03/09 04:44:01;;;;;;;33.17;15.30;;;;;;;-6.68;100.00;95376.13;4993973;28;20100;-60
2022/03/09 04:46:30;;;;;;;36.80;16.02;;;;;;;-6.68;100.00;95382.16;4993794;28;20092;-60
2022/03/09 04:48:59;;;;;;;34.42;16.98;;;;;;;-6.66;100.00;95380.19;5011746;28;20427;-60
2022/03/09 04:51:24;;;;;;;34.33;16.70;;;;;;;-6.64;100.00;95388.66;5010186;28;20030;-60
2022/03/09 04:53:53;;;;;;;35.42;16.33;;;;;;;-6.64;100.00;95390.47;5011557;28;20069;-60
2022/03/09 04:56:21;;;;;;;37.70;16.38;;;;;;;-6.65;100.00;95394.84;5011057;28;20109;-60
2022/03/09 04:58:47;;;;;;;37.05;17.02;;;;;;;-6.70;100.00;95385.88;5011445;28;20045;-60
2022/03/09 05:01:12;;;;;;;38.42;16.10;;;;;;;-6.73;100.00;95398.25;5011131;28;20021;-60
2022/03/09 05:03:38;;;;;;;36.33;16.90;;;;;;;-6.73;100.00;95402.59;5013889;28;20058;-60
2022/03/09 05:06:04;;;;;;;36.15;16.80;;;;;;;-6.73;100.00;95402.59;5014665;28;20089;-59
2022/03/09 05:08:30;;;;;;;41.42;18.25;;;;;;;-6.74;100.00;95401.78;4997782;28;20034;-58
2022/03/09 05:10:55;;;;;;;38.78;18.13;;;;;;;-6.70;100.00;95409.31;5014944;28;20133;-58
2022/03/09 05:13:20;;;;;;;38.03;16.95;;;;;;;-6.67;100.00;95403.81;5031250;23;20057;-57
2022/03/09 05:15:46;;;;;;;42.05;17.45;;;;;;;-6.66;100.00;95411.47;5033911;28;20037;-56
2022/03/09 05:18:18;;;;;;;41.88;18.77;;;;;;;-6.66;100.00;95423.66;5035583;28;20044;-57
2022/03/09 05:20:47;;;;;;;45.80;20.10;;;;;;;-6.64;100.00;95421.72;5034944;28;20032;-59
2022/03/09 05:23:13;;;;;;;43.10;19.80;;;;;;;-6.66;100.00;95427.09;5032897;28;20043;-58
2022/03/09 05:25:44;;;;;;;41.03;19.10;;;;;;;-6.64;100.00;95424.31;5054892;28;20036;-58
2022/03/09 05:28:09;;;;;;;45.47;21.08;;;;;;;-6.57;100.00;95441.81;5055246;28;20021;-58
2022/03/09 05:30:52;;;;;;;45.22;20.17;;;;;;;-6.52;100.00;95447.38;5020609;28;20032;-58
2022/03/09 05:33:28;;;;;;;;;;;;;;;-6.50;100.00;95453.28;5035513;28;20032;-58
2022/03/09 05:35:54;;;;;;;38.10;18.05;;;;;;;-6.52;100.00;95465.63;5035162;28;20273;-58
2022/03/09 05:38:19;;;;;;;51.67;20.05;;;;;;;-6.49;100.00;95460.13;5035119;28;20041;-58
2022/03/09 05:40:44;;;;;;;45.75;20.75;;;;;;;-6.47;100.00;95466.00;5017221;28;20017;-58
2022/03/09 05:43:13;;;;;;;44.55;21.05;;;;;;;-6.46;100.00;95461.59;5034903;28;20136;-58
2022/03/09 05:45:38;;;;;;;44.75;20.75;;;;;;;-6.44;100.00;95476.13;5010155;28;20106;-59
2022/03/09 05:48:04;;;;;;;44.17;21.40;;;;;;;-6.42;100.00;95483.78;5034867;28;20702;-58
2022/03/09 05:50:30;;;;;;;44.35;20.90;;;;;;;-6.33;100.00;95489.88;5034789;28;20053;-58
2022/03/09 05:52:55;;;;;;;46.58;21.55;;;;;;;-6.31;100.00;95483.53;5034791;28;20116;-57
2022/03/09 05:55:21;;;;;;;47.17;22.13;;;;;;;-6.29;100.00;95497.25;5034866;28;20029;-57
2022/03/09 05:57:49;;;;;;;42.78;20.80;;;;;;;-6.27;100.00;95504.94;5017101;28;20017;-58
2022/03/09 06:00:15;;;;;;;44.92;19.98;;;;;;;-6.23;100.00;95511.47;5000519;28;20108;-58
2022/03/09 06:02:41;;;;;;;40.75;18.85;;;;;;;-6.19;100.00;95510.19;5016828;28;20040;-58
2022/03/09 06:05:07;;;;;;;43.55;19.85;;;;;;;-6.09;100.00;95512.69;5017054;28;20018;-58
2022/03/09 06:07:33;;;;;;;38.80;19.27;;;;;;;-6.04;100.00;95519.13;5034593;28;20091;-58
2022/03/09 06:09:58;;;;;;;44.42;20.00;;;;;;;-5.99;100.00;95532.50;5053446;28;20032;-58
2022/03/09 06:12:30;;;;;;;44.33;18.98;;;;;;;-5.98;100.00;95531.53;5036774;28;20516;-58
2022/03/09 06:15:02;;;;;;;44.28;19.40;;;;;;;-5.98;100.00;95536.75;5033982;28;20145;-55
2022/03/09 06:17:31;;;;;;;43.00;19.67;;;;;;;-5.97;100.00;95543.63;5033350;28;20053;-56
2022/03/09 06:19:56;;;;;;;39.58;19.05;;;;;;;-5.92;100.00;95549.19;5015760;28;20033;-57
2022/03/09 06:22:21;;;;;;;41.92;18.60;;;;;;;-5.84;100.00;95548.41;5030596;28;20381;-58
2022/03/09 06:24:47;;;;;;;40.42;18.65;;;;;;;-5.77;100.00;95557.25;5004167;28;20103;-58
2022/03/09 06:27:12;;;;;;;43.60;18.92;;;;;;;-5.71;100.00;95558.44;5031928;28;20518;-58
2022/03/09 06:29:37;;;;;;;41.35;19.25;;;;;;;-5.68;100.00;95561.53;5053141;28;20399;-58
2022/03/09 06:32:04;;;;;;;43.45;19.52;;;;;;;-5.65;100.00;95568.25;5044187;28;20083;-57
2022/03/09 06:34:29;;;;;;;47.00;18.35;;;;;;;-5.61;100.00;95569.59;5031550;28;20511;-55
2022/03/09 06:36:59;;;;;;;36.95;18.63;;;;;;;-5.56;100.00;95572.53;5030559;28;20029;-59
2022/03/09 06:39:26;;;;;;;38.45;17.38;;;;;;;-5.48;100.00;95574.41;5030439;28;20112;-57
2022/03/09 06:41:52;;;;;;;41.75;18.25;;;;;;;-5.37;100.00;95579.34;5032642;28;20072;-56
2022/03/09 06:44:17;;;;;;;39.25;16.83;;;;;;;-5.23;100.00;95581.38;5031247;28;20455;-57
2022/03/09 06:46:45;;;;;;;35.58;16.17;;;;;;;-5.14;100.00;95587.47;5031818;28;20052;-58
2022/03/09 06:49:10;;;;;;;37.67;16.33;;;;;;;-5.09;100.00;95595.66;5013659;28;20031;-58
2022/03/09 06:51:39;;;;;;;39.38;18.35;;;;;;;-5.03;100.00;95590.63;5032724;28;20021;-54
2022/03/09 06:54:04;;;;;;;39.13;18.20;;;;;;;-4.96;100.00;95593.44;5030154;28;20037;-56
2022/03/09 06:56:30;;;;;;;37.63;17.80;;;;;;;-4.85;100.00;95603.59;5014869;28;20056;-54
2022/03/09 06:58:55;;;;;;;41.97;17.35;;;;;;;-4.74;100.00;95603.31;5017961;28;20025;-54
2022/03/09 07:01:21;;;;;;;43.40;17.83;;;;;;;-4.62;100.00;95613.50;5032487;28;20471;-55
2022/03/09 07:03:49;;;;;;;69.93;17.77;;;;;;;-4.50;100.00;95610.41;5030527;28;20029;-55
2022/03/09 07:06:24;;;;;;;99.63;19.52;;;;;;;-4.32;100.00;95612.13;5030799;28;20028;-56
2022/03/09 07:08:50;;;;;;;93.15;20.13;;;;;;;-4.16;100.00;95614.75;5029426;28;20391;-58
2022/03/09 07:11:15;;;;;;;59.40;17.60;;;;;;;-3.97;100.00;95629.34;5025343;28;20021;-57
2022/03/09 07:13:41;;;;;;;37.97;15.32;;;;;;;-3.76;100.00;95623.63;5013786;28;20054;-55
2022/03/09 07:16:06;;;;;;;34.88;16.00;;;;;;;-3.54;100.00;95625.59;5028243;28;20029;-56
2022/03/09 07:18:34;;;;;;;43.22;16.30;;;;;;;-3.33;100.00;95639.00;5030160;28;20025;-59
2022/03/09 07:20:59;;;;;;;33.60;14.40;;;;;;;-3.14;100.00;95640.44;5021565;28;20044;-57
2022/03/09 07:23:25;;;;;;;29.67;13.95;;;;;;;-2.99;100.00;95646.63;5012756;28;20385;-57
2022/03/09 07:25:53;;;;;;;30.92;14.85;;;;;;;-2.82;100.00;95649.19;5031758;28;20462;-55
2022/03/09 07:28:21;;;;;;;32.35;14.57;;;;;;;-2.70;100.00;95664.41;5031756;28;20117;-54
2022/03/09 07:31:02;;;;;;;28.73;14.20;;;;;;;-2.39;100.00;95667.09;5029471;28;20565;-53
2022/03/09 07:33:27;;;;;;;28.65;13.52;;;;;;;-2.11;100.00;95664.81;5030383;28;20563;-54
2022/03/09 07:35:54;;;;;;;41.53;16.48;;;;;;;-1.77;100.00;95666.25;5047798;28;20104;-54
2022/03/09 07:38:26;;;;;;;32.95;16.00;;;;;;;-1.36;100.00;95663.34;5051481;28;20463;-54
2022/03/09 07:40:52;;;;;;;38.10;17.65;;;;;;;-0.92;100.00;95663.44;5051942;28;20024;-57
2022/03/09 07:43:22;;;;;;;34.85;16.52;;;;;;;-0.40;100.00;95658.09;5039186;28;20071;-57
2022/03/09 07:45:48;;;;;;;31.70;15.38;;;;;;;0.08;100.00;95642.66;5031902;28;20076;-57
2022/03/09 07:48:19;;;;;;;35.00;17.35;;;;;;;0.52;100.00;95631.97;4983822;28;20404;-56
2022/03/09 07:50:48;;;;;;;38.53;16.58;;;;;;;0.90;100.00;95615.06;5031907;28;20052;-58
2022/03/09 07:53:13;;;;;;;33.58;15.32;;;;;;;1.31;100.00;95608.03;5031541;28;20027;-59
2022/03/09 07:55:42;;;;;;;30.17;13.68;;;;;;;1.70;100.00;95574.88;5024054;28;20028;-59
2022/03/09 07:58:07;;;;;;;34.15;14.05;;;;;;;2.02;100.00;95541.66;5051245;28;20446;-60
2022/03/09 08:00:32;;;;;;;34.88;14.95;;;;;;;2.32;100.00;95508.56;5050275;28;20020;-58
2022/03/09 08:03:01;;;;;;;23.50;11.23;;;;;;;2.68;100.00;95469.50;5051522;28;20025;-59
2022/03/09 08:05:29;;;;;;;23.83;11.68;;;;;;;3.00;100.00;95434.19;5051609;28;20070;-60
2022/03/09 08:07:55;;;;;;;24.38;11.15;;;;;;;3.26;100.00;95414.78;5051000;28;20029;-60
2022/03/09 08:10:23;;;;;;;26.15;12.38;;;;;;;3.58;100.00;95405.03;5031841;28;20124;-61
2022/03/09 08:12:49;;;;;;;22.48;11.73;;;;;;;3.77;100.00;95422.59;5030025;28;20067;-61
2022/03/09 08:15:14;;;;;;;23.33;11.68;;;;;;;3.97;100.00;95464.06;5031372;28;20033;-62
2022/03/09 08:17:40;;;;;;;24.73;12.10;;;;;;;4.16;100.00;95507.38;5013864;28;20029;-62
2022/03/09 08:20:06;;;;;;;21.13;10.80;;;;;;;4.33;100.00;95570.28;5031261;28;20044;-62
2022/03/09 08:22:32;;;;;;;21.50;11.18;;;;;;;4.35;100.00;95633.72;5010353;28;20037;-63
2022/03/09 08:24:57;;;;;;;19.90;10.82;;;;;;;4.26;100.00;95703.94;5013595;28;20652;-63
2022/03/09 08:27:32;;;;;;;20.17;10.25;;;;;;;4.40;100.00;95741.81;5031077;28;20108;-64
2022/03/09 08:30:02;;;;;;;23.40;11.77;;;;;;;4.57;100.00;95780.94;4997507;28;20033;-64
2022/03/09 08:32:30;;;;;;;21.63;11.40;;;;;;;4.56;100.00;95808.50;5031295;28;20106;-64
2022/03/09 08:34:59;;;;;;;19.80;10.77;;;;;;;4.81;100.00;95844.94;5031474;28;20531;-65
2022/03/09 08:37:24;;;;;;;20.17;10.50;;;;;;;5.11;100.00;95869.13;5031431;28;20088;-65
2022/03/09 08:39:53;;;;;;;18.83;10.93;;;;;;;5.40;100.00;95892.47;5041983;28;20467;-65
2022/03/09 08:42:18;;;;;;;18.30;10.48;;;;;;;5.51;100.00;95926.34;5035270;28;20041;-64
2022/03/09 08:44:51;;;;;;;23.15;11.30;;;;;;;5.61;100.00;95948.97;5035309;28;20035;-64
2022/03/09 08:47:22;;;;;;;20.75;10.40;;;;;;;5.69;100.00;95970.81;5034730;28;20396;-64
2022/03/09 08:49:47;;;;;;;21.80;11.02;;;;;;;5.74;100.00;95976.28;5035121;28;20132;-63
2022/03/09 08:52:18;;;;;;;20.70;10.35;;;;;;;5.94;100.00;95989.50;5035087;28;20523;-63
2022/03/09 08:54:46;;;;;;;19.38;10.07;;;;;;;6.13;99.77;96011.72;5035185;28;20084;-63
2022/03/09 08:57:14;;;;;;;20.42;9.88;;;;;;;6.39;99.21;96022.16;5034879;28;20044;-62
2022/03/09 08:59:40;;;;;;;18.38;9.85;;;;;;;6.60;96.04;96042.28;5034823;28;20026;-64
2022/03/09 09:02:06;;;;;;;17.70;10.20;;;;;;;6.78;94.05;96052.19;5034838;28;20087;-65
2022/03/09 09:04:31;;;;;;;18.52;10.07;;;;;;;6.87;91.47;96064.22;5034799;28;20364;-64
2022/03/09 09:06:56;;;;;;;17.98;10.00;;;;;;;7.12;90.54;96069.53;5000521;28;20025;-64
2022/03/09 09:09:24;;;;;;;20.35;11.05;;;;;;;7.31;88.10;96097.03;5017043;28;20033;-63
2022/03/09 09:11:49;;;;;;;15.60;9.85;;;;;;;7.52;85.98;96109.13;5027031;28;20132;-65
2022/03/09 09:14:17;;;;;;;19.85;10.23;;;;;;;7.50;83.97;96125.34;5034258;28;20163;-61
2022/03/09 09:16:45;;;;;;;16.92;9.43;;;;;;;7.65;82.81;96137.50;5028821;28;20025;-63
2022/03/09 09:19:20;;;;;;;19.20;10.43;;;;;;;7.58;81.59;96142.91;5015691;28;20510;-62
2022/03/09 09:21:57;;;;;;;19.35;10.13;;;;;;;7.73;80.19;96155.91;5034743;28;20033;-62
2022/03/09 09:24:22;;;;;;;18.58;10.10;;;;;;;7.97;79.88;96156.88;5014699;28;20483;-63
2022/03/09 09:26:54;;;;;;;19.50;11.15;;;;;;;8.24;78.37;96165.38;5017517;28;20080;-62
2022/03/09 09:29:19;;;;;;;20.67;10.73;;;;;;;8.57;76.75;96162.31;5036751;28;20256;-62
2022/03/09 09:31:48;;;;;;;21.10;10.73;;;;;;;8.93;75.40;96161.44;5028712;28;20594;-61
2022/03/09 09:34:14;;;;;;;19.30;10.63;;;;;;;9.07;73.47;96170.06;5035157;28;20057;-62
2022/03/09 09:36:43;;;;;;;18.50;11.20;;;;;;;8.92;71.36;96176.66;5035141;28;20108;-61
2022/03/09 09:39:09;;;;;;;21.58;10.90;;;;;;;9.02;70.46;96170.75;5031823;28;20439;-64
2022/03/09 09:41:36;;;;;;;19.50;10.68;;;;;;;9.13;70.12;96177.19;5020021;28;20053;-63
2022/03/09 09:44:02;;;;;;;17.13;10.30;;;;;;;9.51;70.43;96182.94;5026900;28;20118;-61
2022/03/09 09:46:30;;;;;;;18.73;10.30;;;;;;;9.89;69.62;96179.00;5027067;28;20110;-62
2022/03/09 09:48:57;;;;;;;22.63;11.70;;;;;;;9.94;68.02;96176.44;5017258;28;20037;-63
2022/03/09 09:51:23;;;;;;;19.10;10.98;;;;;;;10.14;66.01;96176.06;5031674;28;20064;-62
2022/03/09 09:53:52;;;;;;;18.65;11.07;;;;;;;10.18;66.71;96177.22;5027461;28;20033;-63
2022/03/09 09:56:18;;;;;;;17.23;10.23;;;;;;;10.22;65.86;96175.75;5030677;28;20034;-64
2022/03/09 09:58:44;;;;;;;19.75;11.30;;;;;;;10.17;66.39;96176.41;5024763;28;20040;-65
2022/03/09 10:01:11;;;;;;;18.95;11.13;;;;;;;10.04;65.82;96170.50;5042482;28;20396;-62
2022/03/09 10:03:40;;;;;;;22.30;11.60;;;;;;;10.25;66.51;96158.38;5035955;28;20044;-64
2022/03/09 10:06:08;;;;;;;18.15;10.18;;;;;;;10.33;64.82;96169.56;5035506;28;20487;-63
2022/03/09 10:08:33;;;;;;;19.38;10.85;;;;;;;10.50;65.44;96166.94;5052214;28;20029;-60
2022/03/09 10:11:04;;;;;;;19.40;11.13;;;;;;;10.69;64.93;96160.34;5044148;28;20032;-62
2022/03/09 10:13:35;;;;;;;19.17;10.30;;;;;;;10.85;62.94;96160.63;4996170;28;20505;-60
2022/03/09 10:16:20;;;;;;;19.17;11.02;;;;;;;11.11;60.24;96160.03;5016586;28;20061;-62
2022/03/09 10:18:49;;;;;;;20.80;10.75;;;;;;;11.40;59.23;96160.00;5034309;28;20384;-60
2022/03/09 10:21:20;;;;;;;15.60;10.10;;;;;;;11.79;59.98;96150.13;5034212;28;20037;-61
2022/03/09 10:24:01;;;;;;;18.58;10.82;;;;;;;12.15;58.53;96144.22;5034462;28;20120;-63
2022/03/09 10:26:43;;;;;;;17.52;10.65;;;;;;;12.08;56.87;96151.66;5033993;28;20515;-62
2022/03/09 10:29:13;;;;;;;18.38;10.32;;;;;;;11.92;56.69;96151.69;5030107;28;20124;-61
2022/03/09 10:31:45;;;;;;;16.40;10.18;;;;;;;11.61;54.30;96157.41;5005201;28;20021;-63
2022/03/09 10:34:24;;;;;;;16.88;10.00;;;;;;;11.82;52.17;96157.72;5025066;28;20087;-61
2022/03/09 10:37:06;;;;;;;21.13;11.65;;;;;;;11.84;51.55;96158.28;5033870;28;20112;-61
2022/03/09 10:39:37;;;;;;;19.67;11.63;;;;;;;11.99;52.70;96150.44;5029943;28;20026;-61
2022/03/09 10:42:04;;;;;;;18.95;10.73;;;;;;;12.12;52.43;96158.13;5010511;28;20045;-59
2022/03/09 10:44:49;;;;;;;20.13;11.48;;;;;;;12.29;51.38;96147.38;5033548;28;20025;-61
2022/03/09 10:47:36;;;;;;;20.30;11.88;;;;;;;12.55;52.93;96142.28;5033772;28;20491;-60
2022/03/09 10:50:16;;;;;;;21.52;11.68;;;;;;;12.88;51.10;96142.13;5032281;28;20029;-63
2022/03/09 10:52:52;;;;;;;19.70;11.38;;;;;;;12.95;49.44;96145.44;5028617;28;20397;-63
2022/03/09 10:55:37;;;;;;;19.10;10.93;;;;;;;12.77;47.11;96137.69;5032154;28;20108;-65
2022/03/09 10:58:07;;;;;;;15.50;9.98;;;;;;;12.47;45.98;96138.16;5027853;28;20022;-62
2022/03/09 11:00:37;;;;;;;20.65;11.07;;;;;;;12.58;45.94;96137.22;4973275;28;20054;-62
2022/03/09 11:03:08;;;;;;;19.73;11.13;;;;;;;12.53;46.17;96130.97;5000526;28;20032;-64
2022/03/09 11:05:35;;;;;;;21.52;11.70;;;;;;;12.55;45.59;96135.03;5031045;28;20502;-64
2022/03/09 11:08:02;;;;;;;20.55;11.85;;;;;;;12.61;45.49;96130.53;5032216;28;20443;-64
2022/03/09 11:10:29;;;;;;;23.60;13.48;;;;;;;12.81;46.68;96122.72;5004018;28;20480;-62
2022/03/09 11:12:54;;;;;;;23.77;14.70;;;;;;;13.32;48.26;96121.31;5004149;23;20078;-66
2022/03/09 11:15:21;;;;;;;29.10;17.23;;;;;;;13.60;48.64;96112.13;4982099;28;20022;-65
2022/03/09 11:17:50;;;;;;;32.50;16.70;;;;;;;13.84;48.24;96109.03;4976441;28;20495;-66
2022/03/09 11:20:15;;;;;;;25.67;15.43;;;;;;;14.01;49.96;96108.88;4992410;28;20033;-66